Kpillon — C6WE2 — position and weather

sailwx.info

Track history (hours):
 
Tides and Currents Weather Stations Pressure Air Temp Water Temp Dewpoint Dewpoint Depression Visibility Wind Speed Wind Dir Waves Ship Positions

Kpillon

Last reported at 2017-Nov-17 22:05 UTC. Time now 2017-Nov-20 21:25 UTC.
Position N 10°20' W 075°31'.

Length 183 m; draft 10.8 m.

Type: Tanker. MMSI: 308805634.

Date/timePositionNaut miles runAvg speedWind from/ knotsBaromVisibWave heightAir tempDewpointWater temp
2017-Nov-17 22:05N 10°20' W 075°31'0 0.6
2017-Nov-17 22:00N 10°20' W 075°31'1 2.5
2017-Nov-17 21:30N 10°19' W 075°32'0 0.5
2017-Nov-17 21:00N 10°20' W 075°32'0 0.0
2017-Nov-17 20:30N 10°20' W 075°32'0 0.0
2017-Nov-17 20:00N 10°20' W 075°32'0 0.1
2017-Nov-17 19:30N 10°20' W 075°32'0 0.1
2017-Nov-17 19:00N 10°20' W 075°32'0 0.0
2017-Nov-17 18:30N 10°20' W 075°32'0 0.0
2017-Nov-17 18:00N 10°20' W 075°32'0 0.1
2017-Nov-17 17:30N 10°20' W 075°32'0 0.0
2017-Nov-17 17:00N 10°20' W 075°32'0 0.0
2017-Nov-17 16:30N 10°20' W 075°32'0 0.0
2017-Nov-17 16:00N 10°20' W 075°32'0 0.2
2017-Nov-17 15:30N 10°20' W 075°32'0 0.0
2017-Nov-17 15:00N 10°20' W 075°32'0 0.0
2017-Nov-17 14:30N 10°20' W 075°32'0 0.0
2017-Nov-17 14:00N 10°20' W 075°32'0 0.1
2017-Nov-17 13:30N 10°20' W 075°32'0 0.1
2017-Nov-17 13:00N 10°20' W 075°32'0 0.0
2017-Nov-17 12:30N 10°20' W 075°32'0 0.0
2017-Nov-17 12:00N 10°20' W 075°32'0 0.0
2017-Nov-17 11:30N 10°20' W 075°32'0 0.0
2017-Nov-17 11:00N 10°20' W 075°32'0 0.0
2017-Nov-17 10:30N 10°20' W 075°32'0 0.0
2017-Nov-17 09:54N 10°20' W 075°32'0 0.0
2017-Nov-17 09:30N 10°20' W 075°32'0 0.0
2017-Nov-17 09:00N 10°20' W 075°32'0 0.0
2017-Nov-17 08:06N 10°20' W 075°32'0 0.1
2017-Nov-17 08:00N 10°20' W 075°32'0 0.0
2017-Nov-17 07:30N 10°20' W 075°32'0 0.0
2017-Nov-17 07:00N 10°20' W 075°32'0 0.2
2017-Nov-17 06:30N 10°20' W 075°32'0 0.0
2017-Nov-17 06:00N 10°20' W 075°32'0 0.1
2017-Nov-17 05:30N 10°20' W 075°32'0 0.0
2017-Nov-17 05:00N 10°20' W 075°32'0 0.0
2017-Nov-17 04:30N 10°20' W 075°32'0 0.0
2017-Nov-17 04:00N 10°20' W 075°32'0 0.0
2017-Nov-17 03:30N 10°20' W 075°32'0 0.0
2017-Nov-17 03:00N 10°20' W 075°32'0 0.1
2017-Nov-17 02:30N 10°20' W 075°32'0 0.0
2017-Nov-17 02:00N 10°20' W 075°32'0 0.0
2017-Nov-17 01:30N 10°20' W 075°32'0 0.0
2017-Nov-17 01:00N 10°20' W 075°32'0 0.0
2017-Nov-17 00:30N 10°20' W 075°32'0 0.0
2017-Nov-17 00:00N 10°20' W 075°32'0 0.0
2017-Nov-16 23:30N 10°20' W 075°32'0 0.0
2017-Nov-16 23:00N 10°20' W 075°32'0 0.0
2017-Nov-16 22:30N 10°20' W 075°32'0 0.0
2017-Nov-16 22:00N 10°20' W 075°32'0 0.0
2017-Nov-16 21:30N 10°20' W 075°32'0 0.0
2017-Nov-16 21:00N 10°20' W 075°32'0 0.0
2017-Nov-16 20:30N 10°20' W 075°32'0 0.0
2017-Nov-16 20:00N 10°20' W 075°32'0 0.0
2017-Nov-16 19:30N 10°20' W 075°32'0 0.0
2017-Nov-16 19:00N 10°20' W 075°32'0 0.0
2017-Nov-16 18:30N 10°20' W 075°32'0 0.0
2017-Nov-16 18:00N 10°20' W 075°32'0 0.1
2017-Nov-16 17:30N 10°20' W 075°32'0 0.0
2017-Nov-16 17:00N 10°20' W 075°32'0 0.0
2017-Nov-16 16:30N 10°20' W 075°32'0 0.0
2017-Nov-16 16:00N 10°20' W 075°32'0 0.0
2017-Nov-16 15:30N 10°20' W 075°32'0 0.0
2017-Nov-16 15:00N 10°20' W 075°32'0 0.0
2017-Nov-16 14:30N 10°20' W 075°32'0 0.1
2017-Nov-16 14:00N 10°20' W 075°32'0 0.0
2017-Nov-16 13:30N 10°20' W 075°32'0 0.0
2017-Nov-16 13:00N 10°20' W 075°32'0 0.1
2017-Nov-16 12:30N 10°20' W 075°32'1 1.3
2017-Nov-16 12:00N 10°20' W 075°32'2 3.8
2017-Nov-16 11:30N 10°19' W 075°34'4 8.6
2017-Nov-16 11:00N 10°22' W 075°38'713.3
2017-Nov-16 10:28N 10°29' W 075°37'612.7
2017-Nov-16 10:00N 10°35' W 075°38'57 9.1
2017-Nov-16 03:48N 11°01' W 074°46'3 9.0
2017-Nov-16 03:30N 10°58' W 074°45'0 0.7
2017-Nov-16 03:00N 10°59' W 074°45'0 0.0
2017-Nov-15 19:40N 10°59' W 074°45'0 0.0
2017-Nov-14 19:34N 10°59' W 074°45'0 0.0
2017-Nov-14 19:28N 10°59' W 074°45'0 0.0
2017-Nov-14 18:58N 10°59' W 074°45'0 0.0
2017-Nov-14 18:01N 10°59' W 074°45'0 0.1
2017-Nov-14 17:55N 10°59' W 074°45'0 0.0
2017-Nov-14 17:28N 10°59' W 074°45'0 0.0
2017-Nov-14 16:58N 10°59' W 074°45'0 0.0
2017-Nov-14 16:28N 10°59' W 074°45'0 0.0
2017-Nov-14 16:00N 10°59' W 074°45'2 4.5
2017-Nov-14 15:29N 11°01' W 074°46'4 8.8
2017-Nov-14 15:00N 11°03' W 074°50'5 9.2
2017-Nov-14 14:30N 11°07' W 074°52'1 2.3
2017-Nov-14 14:00N 11°08' W 074°53'1 2.9
2017-Nov-14 13:30N 11°08' W 074°54'1 1.8
2017-Nov-14 13:00N 11°07' W 074°54'3 6.3
2017-Nov-14 12:29N 11°07' W 074°57'6 0.2
2017-Nov-13 01:38N 11°13' W 075°01'1915.0
2017-Nov-13 00:23N 11°15' W 074°42'73 1.7
2017-Nov-11 04:19N 10°27' W 075°37'413.2
2017-Nov-11 04:00N 10°23' W 075°37'5 9.1
2017-Nov-11 03:30N 10°19' W 075°35'1 2.6
2017-Nov-11 03:00N 10°18' W 075°33'0 0.2
2017-Nov-11 02:29N 10°18' W 075°33'0 0.0
2017-Nov-11 01:59N 10°18' W 075°33'0 0.9
2017-Nov-11 01:30N 10°19' W 075°33'3 5.1
2017-Nov-11 01:00N 10°21' W 075°31'0 0.3
2017-Nov-11 00:29N 10°21' W 075°31'0 0.0
2017-Nov-10 23:59N 10°21' W 075°31'0 0.0
2017-Nov-10 23:29N 10°21' W 075°31'0 0.0
2017-Nov-10 22:59N 10°21' W 075°31'0 0.0
2017-Nov-10 22:29N 10°21' W 075°31'0 0.0
2017-Nov-10 21:59N 10°21' W 075°31'0 0.0
2017-Nov-10 21:29N 10°21' W 075°31'0 0.0
2017-Nov-10 20:59N 10°21' W 075°31'0 0.0
2017-Nov-10 20:29N 10°21' W 075°31'0 0.0
2017-Nov-10 19:59N 10°21' W 075°31'0 0.0
2017-Nov-10 19:29N 10°20' W 075°31'0 0.0
2017-Nov-10 18:59N 10°20' W 075°31'0 0.0
2017-Nov-10 18:29N 10°21' W 075°31'0 0.0
2017-Nov-10 17:59N 10°21' W 075°31'0 0.0
2017-Nov-10 17:29N 10°21' W 075°31'0 0.0
2017-Nov-10 16:59N 10°21' W 075°31'0 0.0
2017-Nov-10 16:29N 10°21' W 075°31'0 0.0
2017-Nov-10 15:59N 10°20' W 075°31'0 0.0
2017-Nov-10 15:29N 10°21' W 075°31'2 0.1
2017-Nov-09 17:00N 10°19' W 075°32'0 0.0
2017-Nov-09 16:30N 10°19' W 075°32'0 0.1
2017-Nov-09 16:00N 10°19' W 075°32'0 0.0
2017-Nov-09 15:30N 10°19' W 075°32'0 0.0
2017-Nov-09 15:00N 10°19' W 075°32'0 0.0
2017-Nov-09 14:30N 10°19' W 075°32'0 0.0
2017-Nov-09 13:57N 10°19' W 075°32'0 0.0
2017-Nov-09 13:27N 10°19' W 075°32'0 0.0
2017-Nov-09 13:00N 10°19' W 075°32'0 0.0
2017-Nov-09 12:30N 10°19' W 075°32'0 0.0
2017-Nov-09 12:00N 10°19' W 075°32'0 0.1
2017-Nov-09 11:30N 10°19' W 075°32'0 0.0
2017-Nov-09 11:00N 10°19' W 075°32'0 0.0
2017-Nov-09 10:30N 10°19' W 075°32'0 0.0
2017-Nov-09 10:00N 10°19' W 075°32'0 0.0
2017-Nov-09 09:30N 10°19' W 075°32'0 0.0
2017-Nov-09 08:09N 10°19' W 075°32'0 0.0
2017-Nov-09 08:00N 10°19' W 075°32'0 0.0
2017-Nov-09 07:30N 10°19' W 075°32'0 0.0
2017-Nov-09 07:00N 10°19' W 075°32'0 0.0
2017-Nov-09 06:30N 10°19' W 075°32'0 0.0
2017-Nov-09 06:00N 10°19' W 075°32'0 0.0
2017-Nov-09 05:30N 10°19' W 075°32'0 0.0
2017-Nov-09 05:00N 10°19' W 075°32'0 0.0
2017-Nov-09 04:30N 10°19' W 075°32'0 0.0
2017-Nov-09 04:00N 10°19' W 075°32'0 0.0
2017-Nov-09 03:30N 10°19' W 075°32'0 0.0
2017-Nov-09 03:00N 10°19' W 075°32'0 0.0
2017-Nov-09 02:30N 10°19' W 075°32'0 0.0
2017-Nov-09 02:00N 10°19' W 075°32'0 0.0
2017-Nov-09 01:30N 10°19' W 075°32'0 0.0
2017-Nov-09 01:00N 10°19' W 075°32'0 0.0
2017-Nov-09 00:30N 10°19' W 075°32'0 0.0
2017-Nov-09 00:00N 10°19' W 075°32'0 0.0
2017-Nov-08 23:30N 10°19' W 075°32'0 0.0
2017-Nov-08 22:57N 10°19' W 075°32'0 0.0
2017-Nov-08 22:30N 10°19' W 075°32'0 0.0
2017-Nov-08 22:00N 10°19' W 075°32'0 0.0
2017-Nov-08 21:30N 10°19' W 075°32'0 0.0
2017-Nov-08 21:00N 10°19' W 075°32'0 0.0
2017-Nov-08 20:30N 10°19' W 075°32'0 0.0
2017-Nov-08 20:00N 10°19' W 075°32'0 0.0
2017-Nov-08 19:30N 10°19' W 075°32'0 0.0
2017-Nov-08 19:00N 10°19' W 075°32'0 0.0
2017-Nov-08 18:30N 10°19' W 075°32'0 0.0
2017-Nov-08 18:00N 10°19' W 075°32'0 0.1
2017-Nov-08 17:27N 10°19' W 075°32'0 0.0
2017-Nov-08 17:00N 10°19' W 075°32'0 0.0
2017-Nov-08 16:30N 10°19' W 075°32'0 0.0
2017-Nov-08 16:00N 10°19' W 075°32'0 0.0
2017-Nov-08 15:30N 10°19' W 075°32'0 0.1
2017-Nov-08 15:00N 10°19' W 075°32'0 0.0
2017-Nov-08 14:30N 10°19' W 075°32'0 0.0
2017-Nov-08 14:00N 10°19' W 075°32'0 0.0
2017-Nov-08 13:30N 10°19' W 075°32'0 0.0
2017-Nov-08 13:00N 10°19' W 075°32'0 0.0
2017-Nov-08 12:30N 10°19' W 075°32'0 0.0
2017-Nov-08 12:00N 10°19' W 075°32'0 0.0
2017-Nov-08 11:30N 10°19' W 075°32'0 0.1
2017-Nov-08 11:00N 10°19' W 075°32'0 0.0
2017-Nov-08 10:30N 10°19' W 075°32'0 0.0
2017-Nov-08 10:00N 10°19' W 075°32'0 0.0
2017-Nov-08 09:30N 10°19' W 075°32'0 0.0
2017-Nov-08 08:03N 10°19' W 075°32'0 0.1
2017-Nov-08 08:00N 10°19' W 075°32'0 0.0
2017-Nov-08 07:30N 10°19' W 075°32'0 0.0
2017-Nov-08 07:00N 10°19' W 075°32'0 0.0
2017-Nov-08 06:30N 10°19' W 075°32'0 0.1
2017-Nov-08 06:00N 10°19' W 075°32'0 0.0
2017-Nov-08 05:30N 10°19' W 075°32'0 0.0
2017-Nov-08 05:00N 10°19' W 075°32'1 1.3
2017-Nov-08 04:30N 10°19' W 075°33'4 8.5
2017-Nov-08 04:00N 10°19' W 075°37'510.2
2017-Nov-08 03:30N 10°24' W 075°38'9 1.9
2017-Nov-07 22:46N 10°31' W 075°44'0 1.2
2017-Nov-07 22:28N 10°31' W 075°44'  
Track history (hours):
 
Tides and Currents Weather Stations Pressure Air Temp Water Temp Dewpoint Dewpoint Depression Visibility Wind Speed Wind Dir Waves Ship Positions

Kpillon

Last reported at 2017-Nov-17 22:05 UTC. Time now 2017-Nov-20 21:25 UTC.
Position N 10°20' W 075°31'.

Length 183 m; draft 10.8 m.

Type: Tanker. MMSI: 308805634.

Date/timePositionNaut miles runAvg speedWind from/ knotsBaromVisibWave heightAir tempDewpointWater temp
2017-Nov-17 22:05N 10°20' W 075°31'0 0.6
2017-Nov-17 22:00N 10°20' W 075°31'1 2.5
2017-Nov-17 21:30N 10°19' W 075°32'0 0.5
2017-Nov-17 21:00N 10°20' W 075°32'0 0.0
2017-Nov-17 20:30N 10°20' W 075°32'0 0.0
2017-Nov-17 20:00N 10°20' W 075°32'0 0.1
2017-Nov-17 19:30N 10°20' W 075°32'0 0.1
2017-Nov-17 19:00N 10°20' W 075°32'0 0.0
2017-Nov-17 18:30N 10°20' W 075°32'0 0.0
2017-Nov-17 18:00N 10°20' W 075°32'0 0.1
2017-Nov-17 17:30N 10°20' W 075°32'0 0.0
2017-Nov-17 17:00N 10°20' W 075°32'0 0.0
2017-Nov-17 16:30N 10°20' W 075°32'0 0.0
2017-Nov-17 16:00N 10°20' W 075°32'0 0.2
2017-Nov-17 15:30N 10°20' W 075°32'0 0.0
2017-Nov-17 15:00N 10°20' W 075°32'0 0.0
2017-Nov-17 14:30N 10°20' W 075°32'0 0.0
2017-Nov-17 14:00N 10°20' W 075°32'0 0.1
2017-Nov-17 13:30N 10°20' W 075°32'0 0.1
2017-Nov-17 13:00N 10°20' W 075°32'0 0.0
2017-Nov-17 12:30N 10°20' W 075°32'0 0.0
2017-Nov-17 12:00N 10°20' W 075°32'0 0.0
2017-Nov-17 11:30N 10°20' W 075°32'0 0.0
2017-Nov-17 11:00N 10°20' W 075°32'0 0.0
2017-Nov-17 10:30N 10°20' W 075°32'0 0.0
2017-Nov-17 09:54N 10°20' W 075°32'0 0.0
2017-Nov-17 09:30N 10°20' W 075°32'0 0.0
2017-Nov-17 09:00N 10°20' W 075°32'0 0.0
2017-Nov-17 08:06N 10°20' W 075°32'0 0.1
2017-Nov-17 08:00N 10°20' W 075°32'0 0.0
2017-Nov-17 07:30N 10°20' W 075°32'0 0.0
2017-Nov-17 07:00N 10°20' W 075°32'0 0.2
2017-Nov-17 06:30N 10°20' W 075°32'0 0.0
2017-Nov-17 06:00N 10°20' W 075°32'0 0.1
2017-Nov-17 05:30N 10°20' W 075°32'0 0.0
2017-Nov-17 05:00N 10°20' W 075°32'0 0.0
2017-Nov-17 04:30N 10°20' W 075°32'0 0.0
2017-Nov-17 04:00N 10°20' W 075°32'0 0.0
2017-Nov-17 03:30N 10°20' W 075°32'0 0.0
2017-Nov-17 03:00N 10°20' W 075°32'0 0.1
2017-Nov-17 02:30N 10°20' W 075°32'0 0.0
2017-Nov-17 02:00N 10°20' W 075°32'0 0.0
2017-Nov-17 01:30N 10°20' W 075°32'0 0.0
2017-Nov-17 01:00N 10°20' W 075°32'0 0.0
2017-Nov-17 00:30N 10°20' W 075°32'0 0.0
2017-Nov-17 00:00N 10°20' W 075°32'0 0.0
2017-Nov-16 23:30N 10°20' W 075°32'0 0.0
2017-Nov-16 23:00N 10°20' W 075°32'0 0.0
2017-Nov-16 22:30N 10°20' W 075°32'0 0.0
2017-Nov-16 22:00N 10°20' W 075°32'0 0.0
2017-Nov-16 21:30N 10°20' W 075°32'0 0.0
2017-Nov-16 21:00N 10°20' W 075°32'0 0.0
2017-Nov-16 20:30N 10°20' W 075°32'0 0.0
2017-Nov-16 20:00N 10°20' W 075°32'0 0.0
2017-Nov-16 19:30N 10°20' W 075°32'0 0.0
2017-Nov-16 19:00N 10°20' W 075°32'0 0.0
2017-Nov-16 18:30N 10°20' W 075°32'0 0.0
2017-Nov-16 18:00N 10°20' W 075°32'0 0.1
2017-Nov-16 17:30N 10°20' W 075°32'0 0.0
2017-Nov-16 17:00N 10°20' W 075°32'0 0.0
2017-Nov-16 16:30N 10°20' W 075°32'0 0.0
2017-Nov-16 16:00N 10°20' W 075°32'0 0.0
2017-Nov-16 15:30N 10°20' W 075°32'0 0.0
2017-Nov-16 15:00N 10°20' W 075°32'0 0.0
2017-Nov-16 14:30N 10°20' W 075°32'0 0.1
2017-Nov-16 14:00N 10°20' W 075°32'0 0.0
2017-Nov-16 13:30N 10°20' W 075°32'0 0.0
2017-Nov-16 13:00N 10°20' W 075°32'0 0.1
2017-Nov-16 12:30N 10°20' W 075°32'1 1.3
2017-Nov-16 12:00N 10°20' W 075°32'2 3.8
2017-Nov-16 11:30N 10°19' W 075°34'4 8.6
2017-Nov-16 11:00N 10°22' W 075°38'713.3
2017-Nov-16 10:28N 10°29' W 075°37'612.7
2017-Nov-16 10:00N 10°35' W 075°38'57 9.1
2017-Nov-16 03:48N 11°01' W 074°46'3 9.0
2017-Nov-16 03:30N 10°58' W 074°45'0 0.7
2017-Nov-16 03:00N 10°59' W 074°45'0 0.0
2017-Nov-15 19:40N 10°59' W 074°45'0 0.0
2017-Nov-14 19:34N 10°59' W 074°45'0 0.0
2017-Nov-14 19:28N 10°59' W 074°45'0 0.0
2017-Nov-14 18:58N 10°59' W 074°45'0 0.0
2017-Nov-14 18:01N 10°59' W 074°45'0 0.1
2017-Nov-14 17:55N 10°59' W 074°45'0 0.0
2017-Nov-14 17:28N 10°59' W 074°45'0 0.0
2017-Nov-14 16:58N 10°59' W 074°45'0 0.0
2017-Nov-14 16:28N 10°59' W 074°45'0 0.0
2017-Nov-14 16:00N 10°59' W 074°45'2 4.5
2017-Nov-14 15:29N 11°01' W 074°46'4 8.8
2017-Nov-14 15:00N 11°03' W 074°50'5 9.2
2017-Nov-14 14:30N 11°07' W 074°52'1 2.3
2017-Nov-14 14:00N 11°08' W 074°53'1 2.9
2017-Nov-14 13:30N 11°08' W 074°54'1 1.8
2017-Nov-14 13:00N 11°07' W 074°54'3 6.3
2017-Nov-14 12:29N 11°07' W 074°57'6 0.2
2017-Nov-13 01:38N 11°13' W 075°01'1915.0
2017-Nov-13 00:23N 11°15' W 074°42'73 1.7
2017-Nov-11 04:19N 10°27' W 075°37'413.2
2017-Nov-11 04:00N 10°23' W 075°37'5 9.1
2017-Nov-11 03:30N 10°19' W 075°35'1 2.6
2017-Nov-11 03:00N 10°18' W 075°33'0 0.2
2017-Nov-11 02:29N 10°18' W 075°33'0 0.0
2017-Nov-11 01:59N 10°18' W 075°33'0 0.9
2017-Nov-11 01:30N 10°19' W 075°33'3 5.1
2017-Nov-11 01:00N 10°21' W 075°31'0 0.3
2017-Nov-11 00:29N 10°21' W 075°31'0 0.0
2017-Nov-10 23:59N 10°21' W 075°31'0 0.0
2017-Nov-10 23:29N 10°21' W 075°31'0 0.0
2017-Nov-10 22:59N 10°21' W 075°31'0 0.0
2017-Nov-10 22:29N 10°21' W 075°31'0 0.0
2017-Nov-10 21:59N 10°21' W 075°31'0 0.0
2017-Nov-10 21:29N 10°21' W 075°31'0 0.0
2017-Nov-10 20:59N 10°21' W 075°31'0 0.0
2017-Nov-10 20:29N 10°21' W 075°31'0 0.0
2017-Nov-10 19:59N 10°21' W 075°31'0 0.0
2017-Nov-10 19:29N 10°20' W 075°31'0 0.0
2017-Nov-10 18:59N 10°20' W 075°31'0 0.0
2017-Nov-10 18:29N 10°21' W 075°31'0 0.0
2017-Nov-10 17:59N 10°21' W 075°31'0 0.0
2017-Nov-10 17:29N 10°21' W 075°31'0 0.0
2017-Nov-10 16:59N 10°21' W 075°31'0 0.0
2017-Nov-10 16:29N 10°21' W 075°31'0 0.0
2017-Nov-10 15:59N 10°20' W 075°31'0 0.0
2017-Nov-10 15:29N 10°21' W 075°31'2 0.1
2017-Nov-09 17:00N 10°19' W 075°32'0 0.0
2017-Nov-09 16:30N 10°19' W 075°32'0 0.1
2017-Nov-09 16:00N 10°19' W 075°32'0 0.0
2017-Nov-09 15:30N 10°19' W 075°32'0 0.0
2017-Nov-09 15:00N 10°19' W 075°32'0 0.0
2017-Nov-09 14:30N 10°19' W 075°32'0 0.0
2017-Nov-09 13:57N 10°19' W 075°32'0 0.0
2017-Nov-09 13:27N 10°19' W 075°32'0 0.0
2017-Nov-09 13:00N 10°19' W 075°32'0 0.0
2017-Nov-09 12:30N 10°19' W 075°32'0 0.0
2017-Nov-09 12:00N 10°19' W 075°32'0 0.1
2017-Nov-09 11:30N 10°19' W 075°32'0 0.0
2017-Nov-09 11:00N 10°19' W 075°32'0 0.0
2017-Nov-09 10:30N 10°19' W 075°32'0 0.0
2017-Nov-09 10:00N 10°19' W 075°32'0 0.0
2017-Nov-09 09:30N 10°19' W 075°32'0 0.0
2017-Nov-09 08:09N 10°19' W 075°32'0 0.0
2017-Nov-09 08:00N 10°19' W 075°32'0 0.0
2017-Nov-09 07:30N 10°19' W 075°32'0 0.0
2017-Nov-09 07:00N 10°19' W 075°32'0 0.0
2017-Nov-09 06:30N 10°19' W 075°32'0 0.0
2017-Nov-09 06:00N 10°19' W 075°32'0 0.0
2017-Nov-09 05:30N 10°19' W 075°32'0 0.0
2017-Nov-09 05:00N 10°19' W 075°32'0 0.0
2017-Nov-09 04:30N 10°19' W 075°32'0 0.0
2017-Nov-09 04:00N 10°19' W 075°32'0 0.0
2017-Nov-09 03:30N 10°19' W 075°32'0 0.0
2017-Nov-09 03:00N 10°19' W 075°32'0 0.0
2017-Nov-09 02:30N 10°19' W 075°32'0 0.0
2017-Nov-09 02:00N 10°19' W 075°32'0 0.0
2017-Nov-09 01:30N 10°19' W 075°32'0 0.0
2017-Nov-09 01:00N 10°19' W 075°32'0 0.0
2017-Nov-09 00:30N 10°19' W 075°32'0 0.0
2017-Nov-09 00:00N 10°19' W 075°32'0 0.0
2017-Nov-08 23:30N 10°19' W 075°32'0 0.0
2017-Nov-08 22:57N 10°19' W 075°32'0 0.0
2017-Nov-08 22:30N 10°19' W 075°32'0 0.0
2017-Nov-08 22:00N 10°19' W 075°32'0 0.0
2017-Nov-08 21:30N 10°19' W 075°32'0 0.0
2017-Nov-08 21:00N 10°19' W 075°32'0 0.0
2017-Nov-08 20:30N 10°19' W 075°32'0 0.0
2017-Nov-08 20:00N 10°19' W 075°32'0 0.0
2017-Nov-08 19:30N 10°19' W 075°32'0 0.0
2017-Nov-08 19:00N 10°19' W 075°32'0 0.0
2017-Nov-08 18:30N 10°19' W 075°32'0 0.0
2017-Nov-08 18:00N 10°19' W 075°32'0 0.1
2017-Nov-08 17:27N 10°19' W 075°32'0 0.0
2017-Nov-08 17:00N 10°19' W 075°32'0 0.0
2017-Nov-08 16:30N 10°19' W 075°32'0 0.0
2017-Nov-08 16:00N 10°19' W 075°32'0 0.0
2017-Nov-08 15:30N 10°19' W 075°32'0 0.1
2017-Nov-08 15:00N 10°19' W 075°32'0 0.0
2017-Nov-08 14:30N 10°19' W 075°32'0 0.0
2017-Nov-08 14:00N 10°19' W 075°32'0 0.0
2017-Nov-08 13:30N 10°19' W 075°32'0 0.0
2017-Nov-08 13:00N 10°19' W 075°32'0 0.0
2017-Nov-08 12:30N 10°19' W 075°32'0 0.0
2017-Nov-08 12:00N 10°19' W 075°32'0 0.0
2017-Nov-08 11:30N 10°19' W 075°32'0 0.1
2017-Nov-08 11:00N 10°19' W 075°32'0 0.0
2017-Nov-08 10:30N 10°19' W 075°32'0 0.0
2017-Nov-08 10:00N 10°19' W 075°32'0 0.0
2017-Nov-08 09:30N 10°19' W 075°32'0 0.0
2017-Nov-08 08:03N 10°19' W 075°32'0 0.1
2017-Nov-08 08:00N 10°19' W 075°32'0 0.0
2017-Nov-08 07:30N 10°19' W 075°32'0 0.0
2017-Nov-08 07:00N 10°19' W 075°32'0 0.0
2017-Nov-08 06:30N 10°19' W 075°32'0 0.1
2017-Nov-08 06:00N 10°19' W 075°32'0 0.0
2017-Nov-08 05:30N 10°19' W 075°32'0 0.0
2017-Nov-08 05:00N 10°19' W 075°32'1 1.3
2017-Nov-08 04:30N 10°19' W 075°33'4 8.5
2017-Nov-08 04:00N 10°19' W 075°37'510.2
2017-Nov-08 03:30N 10°24' W 075°38'9 1.9
2017-Nov-07 22:46N 10°31' W 075°44'0 1.2
2017-Nov-07 22:28N 10°31' W 075°44'  

Dump ship's entire track history